createdAt,value
2023-05-19T00:04:24.896Z,2.00
2023-05-19T00:09:28.704Z,1.45
2023-05-19T00:14:32.324Z,1.60
2023-05-19T00:19:38.096Z,1.63
2023-05-19T00:24:41.362Z,1.38
2023-05-19T00:29:44.713Z,2.03
2023-05-19T00:34:49.565Z,1.92
2023-05-19T00:44:57.577Z,1.55
2023-05-19T00:50:02.700Z,2.05
2023-05-19T00:55:08.497Z,1.27
2023-05-19T01:00:13.833Z,1.70
2023-05-19T01:05:19.218Z,1.85
2023-05-19T01:10:23.030Z,1.52
2023-05-19T01:15:28.576Z,1.70
2023-05-19T01:26:05.644Z,2.10
2023-05-19T01:31:12.376Z,1.73
2023-05-19T01:36:16.765Z,1.77
2023-05-19T01:41:21.037Z,1.70
2023-05-19T01:46:26.045Z,1.40
2023-05-19T01:51:29.351Z,1.88
2023-05-19T01:56:43.318Z,1.27
2023-05-19T02:01:54.322Z,1.75
2023-05-19T02:07:05.051Z,1.98
2023-05-19T02:12:19.633Z,1.80
2023-05-19T02:17:29.126Z,2.00
2023-05-19T02:22:32.902Z,1.60
2023-05-19T02:27:37.903Z,2.05
2023-05-19T02:32:42.705Z,1.85
2023-05-19T02:37:46.216Z,2.07
2023-05-19T02:42:51.391Z,2.60
2023-05-19T02:47:57.318Z,2.28
2023-05-19T02:53:02.778Z,1.80
2023-05-19T02:58:06.467Z,1.95
2023-05-19T03:03:11.486Z,2.45
2023-05-19T03:08:14.892Z,2.50
2023-05-19T03:13:18.572Z,2.30
2023-05-19T03:18:24.971Z,2.17
2023-05-19T03:23:28.739Z,2.40
2023-05-19T03:28:32.402Z,1.98
2023-05-19T03:33:37.255Z,1.83
2023-05-19T03:38:41.019Z,1.85
2023-05-19T03:43:44.432Z,2.22
2023-05-19T03:48:49.085Z,2.13
2023-05-19T03:53:53.088Z,2.55
2023-05-19T03:58:56.863Z,2.85
2023-05-19T04:04:01.839Z,2.55
2023-05-19T04:09:12.901Z,1.92
2023-05-19T04:14:16.774Z,2.40
2023-05-19T04:19:21.945Z,2.00
2023-05-19T04:24:26.182Z,2.38
2023-05-19T04:29:30.040Z,2.22
2023-05-19T04:34:35.304Z,2.10
2023-05-19T04:39:43.138Z,2.70
2023-05-19T04:44:49.312Z,2.30
2023-05-19T05:00:02.998Z,2.90
2023-05-19T05:05:15.776Z,2.08
2023-05-19T05:10:19.427Z,2.80
2023-05-19T05:15:24.320Z,2.10
2023-05-19T05:20:30.227Z,2.40
2023-05-19T05:25:34.581Z,2.30
2023-05-19T05:30:38.753Z,2.53
2023-05-19T05:35:45.685Z,2.55
2023-05-19T05:40:51.089Z,2.30
2023-05-19T05:45:54.976Z,2.10
2023-05-19T05:51:01.494Z,2.05
2023-05-19T05:56:09.429Z,2.28
2023-05-19T06:01:22.273Z,3.15
2023-05-19T06:06:27.617Z,2.05
2023-05-19T06:11:32.122Z,1.83
2023-05-19T06:16:36.521Z,2.25
2023-05-19T06:21:43.318Z,1.90
2023-05-19T06:26:47.341Z,2.42
2023-05-19T06:31:53.340Z,2.25
2023-05-19T06:36:59.232Z,1.90
2023-05-19T06:42:03.099Z,2.38
2023-05-19T06:47:26.232Z,2.47
2023-05-19T06:52:31.448Z,2.10
2023-05-19T06:57:36.580Z,2.00
2023-05-19T07:02:41.127Z,2.77
2023-05-19T07:07:46.501Z,2.40
2023-05-19T07:12:54.117Z,2.50
2023-05-19T07:18:00.454Z,2.20
2023-05-19T07:23:05.327Z,3.33
2023-05-19T07:28:08.868Z,2.33
2023-05-19T07:33:12.227Z,2.17
2023-05-19T07:38:16.879Z,2.13
2023-05-19T07:43:20.091Z,1.90
2023-05-19T07:48:24.677Z,2.17
2023-05-19T07:53:29.303Z,1.73
2023-05-19T07:58:32.606Z,1.47
2023-05-19T08:03:36.100Z,1.92
2023-05-19T08:08:42.208Z,2.17
2023-05-19T08:13:47.626Z,2.38
2023-05-19T08:18:51.171Z,2.08
2023-05-19T08:23:57.130Z,2.60
2023-05-19T08:29:01.083Z,2.40
2023-05-19T08:34:05.189Z,2.33
2023-05-19T08:39:09.803Z,2.75
2023-05-19T08:44:13.467Z,2.10
2023-05-19T08:49:25.480Z,2.10
2023-05-19T08:54:40.061Z,1.88
2023-05-19T08:59:44.861Z,1.75
2023-05-19T09:04:49.147Z,2.15
2023-05-19T09:09:53.800Z,2.10
2023-05-19T09:14:57.941Z,1.77
2023-05-19T09:20:04.680Z,1.93
2023-05-19T09:25:19.543Z,1.70
2023-05-19T09:30:23.170Z,1.50
2023-05-19T09:35:26.902Z,1.35
2023-05-19T09:40:32.926Z,1.48
2023-05-19T09:45:36.270Z,1.33
2023-05-19T09:50:40.064Z,1.40
2023-05-19T09:55:45.143Z,1.42
2023-05-19T10:05:55.247Z,2.22
2023-05-19T10:11:00.614Z,2.05
2023-05-19T10:16:05.162Z,1.60
2023-05-19T10:21:10.089Z,1.83
2023-05-19T10:26:15.765Z,1.88
2023-05-19T10:31:23.359Z,1.38
2023-05-19T10:36:40.729Z,2.00
2023-05-19T10:41:52.082Z,2.35
2023-05-19T10:46:56.816Z,1.90
2023-05-19T10:52:00.868Z,2.35
2023-05-19T10:57:07.568Z,1.98
2023-05-19T11:02:11.574Z,1.67
2023-05-19T11:07:20.758Z,2.07
2023-05-19T11:12:25.862Z,1.95
2023-05-19T11:17:32.236Z,1.88
2023-05-19T11:22:37.552Z,2.22
2023-05-19T11:27:42.924Z,2.07
2023-05-19T11:32:49.205Z,1.80
2023-05-19T11:37:56.221Z,1.88
2023-05-19T11:43:02.218Z,2.20
2023-05-19T11:48:07.327Z,1.50
2023-05-19T11:53:13.630Z,2.10
2023-05-19T11:58:18.579Z,1.95
2023-05-19T12:08:27.681Z,2.08
2023-05-19T12:13:32.788Z,1.80
2023-05-19T12:18:39.094Z,1.90
2023-05-19T12:23:43.663Z,2.28
2023-05-19T12:28:48.601Z,1.33
2023-05-19T12:38:56.847Z,1.67
2023-05-19T12:44:02.062Z,1.77
2023-05-19T12:49:05.723Z,1.75
2023-05-19T12:54:09.587Z,1.45
2023-05-19T12:59:34.793Z,1.50
2023-05-19T13:04:40.876Z,1.55
2023-05-19T13:09:45.158Z,1.63
2023-05-19T13:14:50.228Z,1.90
2023-05-19T13:19:54.331Z,4.13
2023-05-19T13:25:00.374Z,1.87
2023-05-19T13:30:06.623Z,1.40
2023-05-19T13:35:11.472Z,3.67
2023-05-19T13:40:16.001Z,1.73
2023-05-19T13:45:21.308Z,1.67
2023-05-19T13:50:28.016Z,1.60
2023-05-19T13:55:34.118Z,1.60
2023-05-19T14:00:39.518Z,4.15
2023-05-19T14:05:43.238Z,1.80
2023-05-19T14:10:48.180Z,2.05
2023-05-19T14:20:56.738Z,2.07
2023-05-19T14:26:00.302Z,1.38
2023-05-19T14:31:06.360Z,1.75
2023-05-19T14:36:10.353Z,2.25
2023-05-19T14:41:14.178Z,2.83
2023-05-19T14:46:19.588Z,1.67
2023-05-19T14:51:23.379Z,1.90
2023-05-19T14:56:27.038Z,2.30
2023-05-19T15:01:32.131Z,1.52
2023-05-19T15:06:36.372Z,1.77
2023-05-19T15:11:39.937Z,1.98
2023-05-19T15:16:44.958Z,1.73
2023-05-19T15:21:50.324Z,1.60
2023-05-19T15:26:54.917Z,1.83
2023-05-19T15:32:00.198Z,1.85
2023-05-19T15:37:03.949Z,1.60
2023-05-19T15:42:08.126Z,1.83
2023-05-19T15:47:13.083Z,1.60
2023-05-19T15:57:19.855Z,1.52
2023-05-19T16:02:25.126Z,1.70
2023-05-19T16:07:28.714Z,1.40
2023-05-19T16:12:32.349Z,1.35
2023-05-19T16:17:37.363Z,1.63
2023-05-19T16:22:41.104Z,2.45
2023-05-19T16:27:44.833Z,1.60
2023-05-19T16:32:49.913Z,1.55
2023-05-19T16:42:56.897Z,2.05
2023-05-19T16:48:02.030Z,1.58
2023-05-19T16:53:06.168Z,2.22
2023-05-19T16:58:11.924Z,2.10
2023-05-19T17:03:16.672Z,2.20
2023-05-19T17:08:20.342Z,2.28
2023-05-19T17:13:23.627Z,1.77
2023-05-19T17:18:28.722Z,2.15
2023-05-19T17:28:35.839Z,2.35
2023-05-19T17:33:41.200Z,2.22
2023-05-19T17:38:44.929Z,2.33
2023-05-19T17:43:48.464Z,2.05
2023-05-19T17:48:53.190Z,2.60
2023-05-19T17:53:57.269Z,1.63
2023-05-19T17:59:01.320Z,1.98
2023-05-19T18:04:07.813Z,2.03
2023-05-19T18:09:13.574Z,2.60
2023-05-19T18:14:17.217Z,2.85
2023-05-19T18:19:22.460Z,2.72
2023-05-19T18:29:29.576Z,1.83
2023-05-19T18:34:34.749Z,2.78
2023-05-19T18:39:39.019Z,2.30
2023-05-19T18:44:42.629Z,2.20
2023-05-19T18:49:47.933Z,3.20
2023-05-19T18:54:52.046Z,2.22
2023-05-19T18:59:55.637Z,2.55
2023-05-19T19:05:00.866Z,2.40
2023-05-19T19:10:04.671Z,2.92
2023-05-19T19:15:31.321Z,3.00
2023-05-19T19:20:36.506Z,2.13
2023-05-19T19:25:40.045Z,2.70
2023-05-19T19:30:43.729Z,2.17
2023-05-19T19:35:48.849Z,2.30
2023-05-19T19:40:53.220Z,2.65
2023-05-19T19:46:01.357Z,2.30
2023-05-19T19:51:06.473Z,2.67
2023-05-19T19:56:09.947Z,3.42
2023-05-19T20:01:13.691Z,2.67
2023-05-19T20:06:18.639Z,2.50
2023-05-19T20:11:24.053Z,2.40
2023-05-19T20:16:27.952Z,2.75
2023-05-19T20:21:33.068Z,2.33
2023-05-19T20:26:36.702Z,2.35
2023-05-19T20:31:40.272Z,3.15
2023-05-19T20:36:45.247Z,2.30
2023-05-19T20:41:48.937Z,2.60
2023-05-19T20:46:52.455Z,2.10
2023-05-19T20:51:58.692Z,3.08
2023-05-19T20:57:06.902Z,2.40
2023-05-19T21:02:12.065Z,2.45
2023-05-19T21:07:17.231Z,2.42
2023-05-19T21:12:24.262Z,2.80
2023-05-19T21:17:27.910Z,2.60
2023-05-19T21:22:32.732Z,2.55
2023-05-19T21:27:36.704Z,3.20
2023-05-19T21:32:40.435Z,2.65
2023-05-19T21:37:45.553Z,3.28
2023-05-19T21:42:49.221Z,3.30
2023-05-19T21:47:52.990Z,3.80
2023-05-19T21:52:58.113Z,4.82
2023-05-19T21:58:02.748Z,3.85
2023-05-19T22:03:07.031Z,3.93
2023-05-19T22:08:12.051Z,4.07
2023-05-19T22:13:15.614Z,4.93
2023-05-19T22:18:19.233Z,4.53
2023-05-19T22:23:24.359Z,4.93
2023-05-19T22:28:28.040Z,4.15
2023-05-19T22:33:31.738Z,3.97
2023-05-19T22:38:36.559Z,4.63
2023-05-19T22:43:40.237Z,4.23
2023-05-19T22:48:43.972Z,4.63
2023-05-19T22:53:49.286Z,4.63
2023-05-19T22:58:52.876Z,5.10
2023-05-19T23:03:56.569Z,4.72
2023-05-19T23:09:02.852Z,4.90
2023-05-19T23:14:06.751Z,4.25
2023-05-19T23:19:10.244Z,4.82
2023-05-19T23:24:15.344Z,4.80
2023-05-19T23:29:18.870Z,5.70
2023-05-19T23:34:22.442Z,5.03
2023-05-19T23:39:28.047Z,5.03
2023-05-19T23:49:35.041Z,4.57
2023-05-19T23:54:39.807Z,4.35
2023-05-19T23:59:43.853Z,5.03
